createdAt,value
2023-01-04T00:00:11.211Z,2.99
2023-01-04T00:03:00.454Z,2.97
2023-01-04T00:05:29.416Z,2.95
2023-01-04T00:07:59.421Z,2.90
2023-01-04T00:10:28.565Z,2.84
2023-01-04T00:12:57.656Z,2.79
2023-01-04T00:15:26.497Z,2.72
2023-01-04T00:17:55.709Z,2.66
2023-01-04T00:20:24.356Z,2.60
2023-01-04T00:22:53.203Z,2.53
2023-01-04T00:25:24.976Z,2.51
2023-01-04T00:27:53.901Z,2.48
2023-01-04T00:30:23.444Z,2.48
2023-01-04T00:32:52.367Z,2.48
2023-01-04T00:35:44.269Z,2.51
2023-01-04T00:38:09.523Z,2.52
2023-01-04T00:40:38.783Z,2.51
2023-01-04T00:43:07.860Z,2.48
2023-01-04T00:45:37.333Z,2.45
2023-01-04T00:48:06.509Z,2.42
2023-01-04T00:50:35.266Z,2.40
2023-01-04T00:53:03.853Z,2.38
2023-01-04T00:55:33.191Z,2.36
2023-01-04T00:58:01.345Z,2.33
2023-01-04T04:01:09.148Z,1.32
2023-01-04T04:03:57.177Z,1.34
2023-01-04T04:06:44.879Z,1.36
2023-01-04T04:09:13.711Z,1.39
2023-01-04T04:11:42.424Z,1.41
2023-01-04T04:14:10.683Z,1.40
2023-01-04T04:16:39.794Z,1.38
2023-01-04T04:19:09.260Z,1.35
2023-01-04T04:21:38.226Z,1.32
2023-01-04T04:24:13.146Z,1.29
2023-01-04T04:26:41.715Z,1.27
2023-01-04T04:29:10.533Z,1.22
2023-01-04T04:31:39.367Z,1.19
2023-01-04T04:34:08.231Z,1.19
2023-01-04T04:36:37.710Z,1.15
2023-01-04T04:39:06.671Z,1.14
2023-01-04T04:41:44.846Z,1.15
2023-01-04T04:44:17.323Z,1.13
2023-01-04T04:46:48.248Z,1.11
2023-01-04T04:49:18.145Z,1.10
2023-01-04T04:51:47.808Z,1.07
2023-01-04T04:54:19.463Z,1.04
2023-01-04T04:56:49.724Z,1.01
2023-01-04T04:59:18.992Z,0.96
2023-01-04T05:01:48.255Z,0.92
2023-01-04T05:04:19.943Z,0.90
2023-01-04T05:06:50.379Z,0.90
2023-01-04T05:09:19.702Z,0.90
2023-01-04T05:12:07.115Z,0.90
2023-01-04T05:14:35.969Z,0.92
2023-01-04T05:17:04.920Z,0.95
2023-01-04T05:19:33.863Z,0.97
2023-01-04T05:22:02.778Z,0.98
2023-01-04T05:24:31.675Z,0.95
2023-01-04T05:27:00.198Z,0.93
2023-01-04T05:29:47.114Z,0.89
2023-01-04T05:32:18.206Z,0.87
2023-01-04T05:34:46.815Z,0.82
2023-01-04T05:37:15.683Z,0.78
2023-01-04T05:39:44.822Z,0.77
2023-01-04T05:42:26.062Z,0.76
2023-01-04T05:44:59.891Z,0.78
2023-01-04T05:47:29.826Z,0.79
2023-01-04T05:49:58.818Z,0.85
2023-01-04T05:52:28.241Z,0.87
2023-01-04T05:54:57.390Z,0.90
2023-01-04T05:57:26.785Z,0.93
2023-01-04T05:59:55.388Z,0.92
2023-01-04T06:02:26.849Z,0.92
2023-01-04T06:04:59.214Z,0.91
2023-01-04T06:07:29.940Z,0.90
2023-01-04T06:09:58.684Z,0.88
2023-01-04T06:12:27.402Z,0.89
2023-01-04T06:14:56.259Z,0.94
2023-01-04T06:17:25.169Z,0.97
2023-01-04T06:19:53.800Z,1.00
2023-01-04T06:22:22.691Z,1.03
2023-01-04T06:24:51.481Z,1.07
2023-01-04T06:27:21.093Z,1.10
2023-01-04T06:29:49.136Z,1.12
2023-01-04T06:32:17.809Z,1.13
2023-01-04T06:34:46.324Z,1.15
2023-01-04T06:37:15.001Z,1.14
2023-01-04T06:39:43.562Z,1.12
2023-01-04T06:42:32.131Z,1.09
2023-01-04T06:45:00.897Z,1.10
2023-01-04T06:47:30.085Z,1.10
2023-01-04T06:49:58.747Z,1.11
2023-01-04T06:52:27.563Z,1.12
2023-01-04T06:54:56.390Z,1.17
2023-01-04T06:57:25.099Z,1.24
2023-01-04T06:59:53.876Z,1.29
2023-01-04T07:02:22.718Z,1.33
2023-01-04T07:04:51.068Z,1.36
2023-01-04T07:07:20.224Z,1.40
2023-01-04T07:09:48.870Z,1.45
2023-01-04T07:12:17.102Z,1.50
2023-01-04T07:14:45.790Z,1.55
2023-01-04T07:17:14.283Z,1.63
2023-01-04T07:19:42.880Z,1.70
2023-01-04T07:22:10.941Z,1.76
2023-01-04T07:24:39.144Z,1.82
2023-01-04T07:27:07.991Z,1.89
2023-01-04T07:29:39.434Z,1.94
2023-01-04T07:32:13.535Z,1.98
2023-01-04T07:34:44.105Z,2.02
2023-01-04T07:37:13.894Z,2.06
2023-01-04T07:39:44.280Z,2.07
2023-01-04T07:42:12.326Z,2.08
2023-01-04T07:44:40.954Z,2.09
2023-01-04T07:47:09.015Z,2.12
2023-01-04T07:49:37.838Z,2.16
2023-01-04T07:52:05.934Z,2.21
2023-01-04T07:54:34.780Z,2.26
2023-01-04T07:57:02.919Z,2.33
2023-01-04T07:59:31.019Z,2.40
2023-01-04T08:01:59.217Z,2.45
2023-01-04T08:04:34.364Z,2.50
2023-01-04T08:07:02.804Z,2.53
2023-01-04T08:09:31.388Z,2.55
2023-01-04T08:11:59.437Z,2.59
2023-01-04T08:14:27.597Z,2.62
2023-01-04T08:16:55.662Z,2.62
2023-01-04T08:19:23.817Z,2.63
2023-01-04T08:21:51.750Z,2.66
2023-01-04T08:24:20.935Z,2.70
2023-01-04T08:26:48.921Z,2.75
2023-01-04T08:29:17.107Z,2.79
2023-01-04T08:31:45.472Z,2.84
2023-01-04T08:34:13.571Z,2.88
2023-01-04T08:36:50.383Z,2.92
2023-01-04T08:39:18.468Z,2.96
2023-01-04T08:42:19.450Z,3.01
2023-01-04T08:44:41.100Z,3.06
2023-01-04T08:47:09.243Z,3.08
2023-01-04T08:49:37.972Z,3.09
2023-01-04T08:52:06.695Z,3.12
2023-01-04T08:54:35.288Z,3.19
2023-01-04T08:57:03.244Z,3.28
2023-01-04T08:59:31.277Z,3.35
2023-01-04T09:02:05.172Z,3.41
2023-01-04T09:04:35.194Z,3.50
2023-01-04T09:07:04.180Z,3.57
2023-01-04T09:09:32.515Z,3.61
2023-01-04T09:12:01.061Z,3.66
2023-01-04T09:14:30.137Z,3.69
2023-01-04T09:16:58.229Z,3.73
2023-01-04T09:19:27.219Z,3.78
2023-01-04T09:21:55.373Z,3.82
2023-01-04T09:24:24.085Z,3.86
2023-01-04T09:26:52.680Z,3.91
2023-01-04T09:29:21.047Z,3.96
2023-01-04T09:31:49.667Z,3.99
2023-01-04T09:34:18.337Z,4.02
2023-01-04T09:36:48.315Z,4.04
2023-01-04T09:39:22.437Z,4.05
2023-01-04T09:42:00.385Z,4.05
2023-01-04T09:47:42.073Z,4.08
2023-01-04T09:50:19.855Z,4.14
2023-01-04T09:52:51.224Z,4.17
2023-01-04T09:55:49.850Z,4.19
2023-01-04T09:58:32.511Z,4.23
2023-01-04T10:01:03.198Z,4.32
2023-01-04T10:03:35.900Z,4.37
2023-01-04T10:06:06.672Z,4.40
2023-01-04T10:08:35.595Z,4.42
2023-01-04T10:11:19.695Z,4.43
2023-01-04T10:13:51.653Z,4.45
2023-01-04T10:22:59.079Z,4.47
2023-01-04T10:25:34.412Z,4.52
2023-01-04T10:28:24.562Z,4.55
2023-01-04T10:31:39.338Z,4.59
2023-01-04T10:34:29.269Z,4.63
2023-01-04T10:37:04.614Z,4.69
2023-01-04T10:39:36.642Z,4.73
2023-01-04T10:42:37.527Z,4.78
2023-01-04T10:45:14.340Z,4.80
2023-01-04T10:48:21.959Z,4.81
2023-01-04T10:50:58.296Z,4.81
2023-01-04T10:53:53.503Z,4.82
2023-01-04T10:56:40.771Z,4.81
2023-01-04T10:59:31.768Z,4.83
2023-01-04T11:02:16.277Z,4.86
2023-01-04T11:05:13.434Z,4.90
2023-01-04T11:08:14.341Z,4.95
2023-01-04T11:10:54.551Z,5.00
2023-01-04T11:13:25.268Z,5.02
2023-01-04T11:15:54.560Z,5.04
2023-01-04T11:18:22.874Z,5.07
2023-01-04T11:20:51.941Z,5.10
2023-01-04T11:23:21.449Z,5.10
2023-01-04T11:26:00.015Z,5.12
2023-01-04T11:28:59.909Z,5.13
2023-01-04T11:31:54.235Z,5.16
2023-01-04T11:34:49.002Z,5.19
2023-01-04T11:37:36.190Z,5.20
2023-01-04T11:40:17.794Z,5.21
2023-01-04T11:42:49.432Z,5.24
2023-01-04T11:45:25.806Z,5.26
2023-01-04T11:47:57.446Z,5.27
2023-01-04T11:50:48.279Z,5.29
2023-01-04T11:53:32.479Z,5.29
2023-01-04T11:56:13.738Z,5.28
2023-01-04T11:58:44.628Z,5.28
2023-01-04T12:01:25.542Z,5.27
2023-01-04T12:03:53.704Z,5.25
2023-01-04T12:06:28.764Z,5.23
2023-01-04T12:08:58.445Z,5.24
2023-01-04T12:11:35.371Z,5.27
2023-01-04T12:14:06.418Z,5.29
2023-01-04T12:16:44.801Z,5.29
2023-01-04T12:19:17.431Z,5.28
2023-01-04T12:21:49.820Z,5.30
2023-01-04T12:24:22.968Z,5.29
2023-01-04T12:26:52.888Z,5.29
2023-01-04T12:29:24.743Z,5.28
2023-01-04T12:32:07.559Z,5.29
2023-01-04T12:34:45.488Z,5.28
2023-01-04T12:37:46.733Z,5.28
2023-01-04T12:40:47.388Z,5.26
2023-01-04T12:43:16.424Z,5.26
2023-01-04T12:45:48.895Z,5.27
2023-01-04T12:48:48.645Z,5.28
2023-01-04T12:51:34.429Z,5.28
2023-01-04T12:54:06.335Z,5.31
2023-01-04T12:57:13.262Z,5.32
2023-01-04T13:00:06.170Z,5.34
2023-01-04T13:02:48.568Z,5.36
2023-01-04T13:08:12.905Z,5.37
2023-01-04T13:10:49.921Z,5.37
2023-01-04T13:13:27.520Z,5.37
2023-01-04T13:16:15.298Z,5.35
2023-01-04T13:18:56.856Z,5.36
2023-01-04T13:21:44.162Z,5.37
2023-01-04T13:24:34.524Z,5.39
2023-01-04T13:27:16.078Z,5.43
2023-01-04T13:29:45.981Z,5.47
2023-01-04T13:32:23.831Z,5.49
2023-01-04T13:34:56.637Z,5.48
2023-01-04T13:38:01.023Z,5.48
2023-01-04T13:40:38.087Z,5.47
2023-01-04T13:43:30.845Z,5.44
2023-01-04T13:46:23.311Z,5.42
2023-01-04T13:48:59.059Z,5.41
2023-01-04T13:51:38.338Z,5.41
2023-01-04T13:54:20.000Z,5.45
2023-01-04T13:56:55.393Z,5.46
2023-01-04T13:59:25.509Z,5.47
2023-01-04T14:01:54.679Z,5.48
2023-01-04T14:04:34.197Z,5.50
2023-01-04T14:07:03.571Z,5.52
2023-01-04T14:09:43.428Z,5.54
2023-01-04T14:12:20.340Z,5.54
2023-01-04T14:15:16.512Z,5.54
2023-01-04T14:17:55.193Z,5.56
2023-01-04T14:20:23.477Z,5.56
2023-01-04T14:22:53.566Z,5.56
2023-01-04T14:25:31.014Z,5.58
2023-01-04T14:28:31.057Z,5.60
2023-01-04T14:30:59.164Z,5.63
2023-01-04T14:33:41.120Z,5.64
2023-01-04T14:36:11.225Z,5.63
2023-01-04T14:39:05.851Z,5.63
2023-01-04T14:41:37.975Z,5.63
2023-01-04T14:44:16.691Z,5.62
2023-01-04T14:46:49.028Z,5.66
2023-01-04T14:49:18.448Z,5.68
2023-01-04T14:51:53.633Z,5.71
2023-01-04T14:54:25.493Z,5.71
2023-01-04T14:56:57.625Z,5.71
2023-01-04T14:59:27.416Z,5.71
2023-01-04T15:01:58.107Z,5.70
2023-01-04T15:04:26.887Z,5.69
2023-01-04T15:07:00.493Z,5.68
2023-01-04T15:09:32.433Z,5.66
2023-01-04T15:12:01.753Z,5.63
2023-01-04T15:14:30.811Z,5.63
2023-01-04T15:17:00.250Z,5.65
2023-01-04T15:19:34.141Z,5.66
2023-01-04T15:22:06.160Z,5.68
2023-01-04T15:24:35.087Z,5.69
2023-01-04T15:27:04.094Z,5.70
2023-01-04T15:29:33.197Z,5.71
2023-01-04T15:32:02.250Z,5.69
2023-01-04T15:34:31.312Z,5.70
2023-01-04T15:37:00.467Z,5.71
2023-01-04T15:39:29.428Z,5.71
2023-01-04T15:42:20.115Z,5.71
2023-01-04T15:44:49.765Z,5.72
2023-01-04T15:47:18.520Z,5.73
2023-01-04T15:49:50.094Z,5.72
2023-01-04T15:52:19.113Z,5.73
2023-01-04T15:54:48.252Z,5.74
2023-01-04T15:57:17.338Z,5.76
2023-01-04T15:59:47.339Z,5.78
2023-01-04T16:02:15.696Z,5.78
2023-01-04T16:04:46.127Z,5.79
2023-01-04T16:07:14.692Z,5.79
2023-01-04T16:09:43.115Z,5.79
2023-01-04T16:12:30.513Z,5.79
2023-01-04T16:14:59.109Z,5.81
2023-01-04T16:17:28.003Z,5.82
2023-01-04T16:19:57.125Z,5.85
2023-01-04T16:22:26.044Z,5.88
2023-01-04T16:25:11.851Z,5.89
2023-01-04T16:27:42.252Z,5.91
2023-01-04T16:30:14.669Z,5.91
2023-01-04T16:32:44.403Z,5.93
2023-01-04T16:35:13.047Z,5.94
2023-01-04T16:37:43.583Z,5.94
2023-01-04T16:40:16.770Z,5.95
2023-01-04T16:42:50.965Z,5.95
2023-01-04T16:45:19.551Z,5.98
2023-01-04T16:47:50.371Z,6.00
2023-01-04T16:50:18.769Z,6.01
2023-01-04T16:52:46.798Z,6.03
2023-01-04T16:55:20.034Z,6.06
2023-01-04T16:57:51.604Z,6.06
2023-01-04T17:00:19.830Z,6.08
2023-01-04T17:02:47.880Z,6.10
2023-01-04T17:05:16.222Z,6.12
2023-01-04T17:28:00.298Z,6.33
2023-01-04T17:30:28.414Z,6.33
2023-01-04T17:32:56.637Z,6.34
2023-01-04T17:35:24.987Z,6.36
2023-01-04T17:37:53.202Z,6.38
2023-01-04T17:40:23.545Z,6.41
2023-01-04T17:42:52.977Z,6.41
2023-01-04T17:45:22.040Z,6.41
2023-01-04T17:47:50.377Z,6.41
2023-01-04T17:50:22.571Z,6.40
2023-01-04T17:52:51.441Z,6.40
2023-01-04T17:55:21.542Z,6.41
2023-01-04T17:57:50.465Z,6.42
2023-01-04T18:00:22.139Z,6.44
2023-01-04T18:02:50.347Z,6.44
2023-01-04T18:05:18.996Z,6.45
2023-01-04T18:19:46.212Z,7.18
2023-01-04T18:22:16.210Z,7.29
2023-01-04T18:24:45.199Z,7.23
2023-01-04T18:27:23.710Z,7.19
2023-01-04T18:29:54.748Z,7.15
2023-01-04T18:32:25.820Z,7.11
2023-01-04T18:34:54.913Z,7.09
2023-01-04T18:37:23.757Z,7.07
2023-01-04T18:39:53.453Z,7.05
2023-01-04T18:42:22.753Z,7.01
2023-01-04T18:44:51.724Z,6.98
2023-01-04T18:47:21.355Z,6.95
2023-01-04T18:49:50.691Z,6.94
2023-01-04T18:52:20.139Z,6.93
2023-01-04T18:54:49.258Z,6.91
2023-01-04T18:57:18.130Z,6.89
2023-01-04T18:59:51.029Z,6.89
2023-01-04T19:02:21.380Z,6.88
2023-01-04T19:04:50.721Z,6.88
2023-01-04T19:07:18.858Z,6.88
2023-01-04T19:09:48.073Z,6.89
2023-01-04T19:12:17.325Z,6.90
2023-01-04T19:14:47.480Z,6.91
2023-01-04T19:17:17.671Z,6.94
2023-01-04T19:19:46.789Z,6.95
2023-01-04T19:22:15.872Z,6.93
2023-01-04T19:24:44.083Z,6.93
2023-01-04T19:27:13.687Z,6.93
2023-01-04T19:29:43.687Z,6.94
2023-01-04T19:32:13.723Z,6.95
2023-01-04T19:34:45.246Z,6.99
2023-01-04T19:37:14.934Z,7.01
2023-01-04T19:39:43.917Z,7.03
2023-01-04T19:42:13.086Z,7.03
2023-01-04T19:44:42.079Z,7.03
2023-01-04T19:47:11.776Z,7.06
2023-01-04T19:49:41.128Z,7.09
2023-01-04T19:52:10.421Z,7.11
2023-01-04T19:54:39.541Z,7.16
2023-01-04T19:57:08.146Z,7.18
2023-01-04T19:59:36.983Z,7.18
2023-01-04T20:02:05.387Z,7.19
2023-01-04T20:04:34.429Z,7.20
2023-01-04T20:07:02.758Z,7.22
2023-01-04T20:09:33.323Z,7.23
2023-01-04T20:12:02.579Z,7.24
2023-01-04T20:14:31.216Z,7.25
2023-01-04T20:17:00.112Z,7.28
2023-01-04T20:19:29.210Z,7.30
2023-01-04T20:21:57.488Z,7.31
2023-01-04T20:24:25.667Z,7.35
2023-01-04T20:26:54.499Z,7.38
2023-01-04T20:29:23.207Z,7.38
2023-01-04T20:31:54.679Z,7.41
2023-01-04T20:34:23.227Z,7.42
2023-01-04T20:36:52.546Z,7.44
2023-01-04T20:39:20.909Z,7.46
2023-01-04T20:42:08.934Z,7.48
2023-01-04T20:44:38.530Z,7.49
2023-01-04T20:47:08.024Z,7.51
2023-01-04T20:49:37.805Z,7.53
2023-01-04T20:52:06.815Z,7.54
2023-01-04T20:54:37.429Z,7.57
2023-01-04T20:57:06.182Z,7.59
2023-01-04T20:59:34.314Z,7.60
2023-01-04T21:02:06.964Z,7.62
2023-01-04T21:04:35.999Z,7.64
2023-01-04T21:07:07.436Z,7.65
2023-01-04T21:09:36.648Z,7.67
2023-01-04T21:12:07.304Z,7.67
2023-01-04T21:14:38.391Z,7.66
2023-01-04T21:17:07.505Z,7.66
2023-01-04T21:19:37.103Z,7.68
2023-01-04T21:22:07.264Z,7.69
2023-01-04T21:24:36.208Z,7.70
2023-01-04T21:27:04.760Z,7.71
2023-01-04T21:29:33.598Z,7.72
2023-01-04T21:32:01.736Z,7.75
2023-01-04T21:34:32.487Z,7.77
2023-01-04T21:37:02.259Z,7.83
2023-01-04T21:39:31.352Z,7.84
2023-01-04T21:42:00.836Z,7.86
2023-01-04T21:44:31.091Z,7.87
2023-01-04T21:47:00.005Z,7.89
2023-01-04T21:49:28.400Z,7.91
2023-01-04T21:51:57.286Z,7.92
2023-01-04T21:54:25.559Z,7.93
2023-01-04T21:56:54.445Z,7.92
2023-01-04T21:59:23.629Z,7.94
2023-01-04T22:01:52.526Z,7.98
2023-01-04T22:04:21.015Z,8.01
2023-01-04T22:06:49.308Z,8.04
2023-01-04T22:09:17.636Z,8.04
2023-01-04T22:11:47.197Z,8.05
2023-01-04T22:14:16.712Z,8.07
2023-01-04T22:16:45.625Z,8.07
2023-01-04T22:19:15.253Z,8.07
2023-01-04T22:21:43.812Z,8.08
2023-01-04T22:24:14.342Z,8.09
2023-01-04T22:26:44.722Z,8.08
2023-01-04T22:29:13.128Z,8.11
2023-01-04T22:31:41.417Z,8.12
2023-01-04T22:34:10.240Z,8.13
2023-01-04T22:36:39.538Z,8.13
2023-01-04T22:39:08.522Z,8.14
2023-01-04T22:41:37.374Z,8.14
2023-01-04T22:44:07.286Z,8.15
2023-01-04T22:46:36.786Z,8.16
2023-01-04T22:49:06.164Z,8.16
2023-01-04T22:51:34.424Z,8.16
2023-01-04T22:54:02.868Z,8.17
2023-01-04T22:56:31.278Z,8.18
2023-01-04T22:58:59.615Z,8.18
2023-01-04T23:01:30.931Z,8.18
2023-01-04T23:04:01.030Z,8.20
2023-01-04T23:06:31.401Z,8.20
2023-01-04T23:09:06.083Z,8.20
2023-01-04T23:11:36.036Z,8.22
2023-01-04T23:14:07.481Z,8.23
2023-01-04T23:16:36.076Z,8.25
2023-01-04T23:19:06.963Z,8.26
2023-01-04T23:21:36.445Z,8.27
2023-01-04T23:24:06.408Z,8.29
2023-01-04T23:26:35.098Z,8.32
2023-01-04T23:29:03.379Z,8.31
2023-01-04T23:31:32.489Z,8.31
2023-01-04T23:34:03.447Z,8.33
2023-01-04T23:36:35.108Z,8.35
2023-01-04T23:39:07.767Z,8.38
2023-01-04T23:41:45.563Z,8.41
2023-01-04T23:44:19.269Z,8.42
2023-01-04T23:46:52.310Z,8.42
2023-01-04T23:49:23.801Z,8.41
2023-01-04T23:51:53.497Z,8.39
2023-01-04T23:54:23.054Z,8.40
2023-01-04T23:56:51.856Z,8.40
2023-01-04T23:59:21.055Z,8.42
